Terminal Aerodrome Forecast
Issued by NWS Cleveland, OH

Home | Current Version | Previous Version | Text Only | Print | Product List | Glossary On
Versions: 1 2 3 4 5 6 7 8 9 10 11 12 13 14 15 16 17 18 19 20 21 22 23 24 25
000
FTUS41 KCLE 220500
TAFTOL
TAF
KTOL 220520Z 2206/2306 00000KT P6SM SCT030 OVC100
     FM220900 00000KT 4SM BR SCT015 BKN030
      TEMPO 2210/2213 2SM BR SCT008 OVC015
     FM221500 VRB04KT P6SM BKN035
     FM230300 VRB03KT 5SM BR FEW015 BKN150=

USA.gov is the U.S. government's official web portal to all federal, state and local government web resources and services.